createdAt,value
2016-09-05T00:00:04.659Z,95.36
2016-09-05T00:00:49.761Z,94.59
2016-09-05T00:01:49.785Z,94.93
2016-09-05T00:03:49.834Z,94.84
2016-09-05T00:04:49.913Z,95.31
2016-09-05T00:05:49.887Z,94.93
2016-09-05T00:06:49.907Z,95.51
2016-09-05T00:07:49.981Z,95.12
2016-09-05T00:08:49.966Z,95.22
2016-09-05T00:09:49.987Z,95.41
2016-09-05T00:10:50.010Z,95.07
2016-09-05T00:11:50.034Z,95.12
2016-09-05T00:12:50.780Z,95.36
2016-09-05T00:13:50.084Z,94.79
2016-09-05T00:14:50.131Z,94.89
2016-09-05T00:15:50.147Z,95.12
2016-09-05T00:17:50.946Z,95.22
2016-09-05T00:19:50.236Z,94.93
2016-09-05T00:20:50.258Z,95.07
2016-09-05T00:21:50.298Z,94.89
2016-09-05T00:22:50.327Z,94.79
2016-09-05T00:23:50.341Z,94.79
2016-09-05T00:24:50.360Z,94.79
2016-09-05T00:25:50.386Z,94.69
2016-09-05T00:26:50.411Z,94.21
2016-09-05T00:27:50.437Z,94.79
2016-09-05T00:28:50.462Z,95.07
2016-09-05T00:29:50.487Z,94.98
2016-09-05T00:30:50.529Z,94.21
2016-09-05T00:32:05.465Z,94.69
2016-09-05T00:32:50.566Z,94.4
2016-09-05T00:33:50.607Z,94.31
2016-09-05T00:34:50.623Z,94.12
2016-09-05T00:35:50.655Z,94.4
2016-09-05T00:36:50.665Z,94.02
2016-09-05T00:37:50.700Z,93.93
2016-09-05T00:38:50.721Z,93.93
2016-09-05T00:39:50.748Z,94.12
2016-09-05T00:40:50.768Z,94.31
2016-09-05T00:41:50.793Z,94.59
2016-09-05T00:42:50.815Z,94.31
2016-09-05T00:43:50.843Z,94.4
2016-09-05T00:44:50.865Z,94.31
2016-09-05T00:45:50.888Z,94.21
2016-09-05T00:46:50.918Z,94.69
2016-09-05T00:48:05.873Z,94.21
2016-09-05T00:48:50.965Z,94.21
2016-09-05T00:49:50.990Z,94.31
2016-09-05T00:50:51.021Z,94.59
2016-09-05T00:51:51.046Z,94.31
2016-09-05T00:52:51.077Z,94.98
2016-09-05T00:53:51.094Z,94.59
2016-09-05T00:54:51.116Z,94.07
2016-09-05T00:55:51.146Z,94.31
2016-09-05T00:56:51.177Z,94.02
2016-09-05T00:57:51.194Z,94.17
2016-09-05T00:58:51.231Z,94.31
2016-09-05T00:59:51.247Z,94.12
2016-09-05T01:00:51.284Z,93.83
2016-09-05T01:01:51.294Z,94.5
2016-09-05T01:02:51.336Z,94.5
2016-09-05T01:04:06.268Z,93.93
2016-09-05T01:06:51.424Z,94.74
2016-09-05T01:07:51.492Z,94.74
2016-09-05T01:08:51.474Z,94.74
2016-09-05T01:09:51.494Z,94.84
2016-09-05T01:10:51.543Z,94.26
2016-09-05T01:11:51.548Z,94.35
2016-09-05T01:12:51.569Z,94.4
2016-09-05T01:13:51.609Z,94.02
2016-09-05T01:14:51.622Z,94.02
2016-09-05T01:15:51.657Z,94.21
2016-09-05T01:16:51.675Z,94.59
2016-09-05T01:17:51.709Z,94.4
2016-09-05T01:18:51.723Z,93.83
2016-09-05T01:20:06.672Z,94.21
2016-09-05T01:20:51.786Z,94.02
2016-09-05T01:21:51.810Z,93.78
2016-09-05T01:22:51.824Z,94.17
2016-09-05T01:23:51.845Z,94.07
2016-09-05T01:24:51.873Z,94.4
2016-09-05T01:25:51.899Z,93.98
2016-09-05T01:26:51.922Z,94.02
2016-09-05T01:27:51.948Z,93.63
2016-09-05T01:28:51.975Z,93.35
2016-09-05T01:29:52.017Z,94.21
2016-09-05T01:30:52.028Z,94.31
2016-09-05T01:31:52.052Z,93.63
2016-09-05T01:32:52.073Z,93.83
2016-09-05T01:33:52.800Z,94.02
2016-09-05T01:35:07.051Z,93.49
2016-09-05T01:35:52.153Z,93.63
2016-09-05T01:36:52.180Z,94.02
2016-09-05T01:37:52.201Z,94.21
2016-09-05T01:38:52.237Z,93.59
2016-09-05T01:39:52.257Z,93.35
2016-09-05T01:40:52.285Z,94.02
2016-09-05T01:41:52.313Z,93.54
2016-09-05T01:42:52.337Z,93.73
2016-09-05T01:43:52.352Z,93.83
2016-09-05T01:44:52.381Z,93.54
2016-09-05T01:45:52.401Z,93.83
2016-09-05T01:46:52.425Z,93.54
2016-09-05T01:47:52.456Z,93.54
2016-09-05T01:48:52.481Z,93.44
2016-09-05T01:49:52.510Z,93.63
2016-09-05T01:50:52.547Z,93.54
2016-09-05T01:51:52.569Z,93.93
2016-09-05T01:52:52.584Z,93.93
2016-09-05T01:53:52.609Z,93.93
2016-09-05T01:54:52.636Z,93.54
2016-09-05T01:55:52.659Z,93.35
2016-09-05T01:56:52.685Z,93.54
2016-09-05T01:57:52.704Z,93.35
2016-09-05T01:58:52.729Z,93.35
2016-09-05T01:59:52.760Z,93.73
2016-09-05T02:00:52.798Z,93.44
2016-09-05T02:01:52.805Z,93.26
2016-09-05T02:02:52.841Z,93.63
2016-09-05T02:03:52.856Z,93.73
2016-09-05T02:04:52.885Z,93.44
2016-09-05T02:05:52.905Z,93.93
2016-09-05T02:07:07.855Z,93.21
2016-09-05T02:07:52.968Z,94.31
2016-09-05T02:08:52.987Z,94.02
2016-09-05T02:09:53.009Z,94.21
2016-09-05T02:10:53.084Z,93.73
2016-09-05T02:11:53.065Z,94.4
2016-09-05T02:12:53.093Z,94.64
2016-09-05T02:13:53.113Z,94.89
2016-09-05T02:14:53.132Z,94.98
2016-09-05T02:15:53.175Z,95.26
2016-09-05T02:16:53.184Z,95.17
2016-09-05T02:17:53.210Z,94.59
2016-09-05T02:18:53.235Z,94.79
2016-09-05T02:19:53.319Z,94.98
2016-09-05T02:20:53.297Z,94.79
2016-09-05T02:21:53.311Z,95.17
2016-09-05T02:23:08.265Z,94.69
2016-09-05T02:24:53.391Z,94.59
2016-09-05T02:25:53.408Z,95.03
2016-09-05T02:26:53.437Z,95.41
2016-09-05T02:27:53.471Z,95.41
2016-09-05T02:28:53.501Z,94.84
2016-09-05T02:29:53.512Z,95.12
2016-09-05T02:30:53.546Z,95.46
2016-09-05T02:31:53.622Z,95.07
2016-09-05T02:32:53.588Z,94.98
2016-09-05T02:33:53.609Z,94.79
2016-09-05T02:34:53.643Z,95.07
2016-09-05T02:35:53.665Z,94.89
2016-09-05T02:36:53.687Z,94.93
2016-09-05T02:37:53.727Z,94.69
2016-09-05T02:39:08.661Z,94.21
2016-09-05T02:39:53.766Z,94.84
2016-09-05T02:40:53.798Z,94.69
2016-09-05T02:41:53.814Z,95.17
2016-09-05T02:42:53.845Z,94.89
2016-09-05T02:43:53.867Z,95.17
2016-09-05T02:44:53.899Z,95.22
2016-09-05T02:45:53.930Z,95.17
2016-09-05T02:46:53.944Z,94.59
2016-09-05T02:47:53.966Z,95.07
2016-09-05T02:48:53.991Z,95.26
2016-09-05T02:49:54.030Z,94.79
2016-09-05T02:50:54.037Z,94.98
2016-09-05T02:51:54.084Z,95.26
2016-09-05T02:52:54.087Z,94.59
2016-09-05T02:53:54.112Z,94.89
2016-09-05T02:55:09.063Z,95.46
2016-09-05T02:55:54.165Z,94.59
2016-09-05T02:56:54.188Z,95.36
2016-09-05T02:57:54.216Z,94.69
2016-09-05T02:58:54.239Z,95.07
2016-09-05T02:59:54.270Z,94.69
2016-09-05T03:00:54.293Z,94.93
2016-09-05T03:01:54.320Z,95.26
2016-09-05T03:02:54.356Z,95.07
2016-09-05T03:03:54.367Z,94.5
2016-09-05T03:04:54.393Z,94.59
2016-09-05T03:05:54.414Z,95.07
2016-09-05T03:06:55.140Z,94.59
2016-09-05T03:07:54.468Z,94.59
2016-09-05T03:08:54.510Z,94.5
2016-09-05T03:10:09.442Z,94.69
2016-09-05T03:10:54.544Z,94.64
2016-09-05T03:12:54.595Z,95.36
2016-09-05T03:13:54.621Z,95.17
2016-09-05T03:14:54.648Z,95.22
2016-09-05T03:15:54.677Z,94.45
2016-09-05T03:16:54.690Z,95.36
2016-09-05T03:17:54.723Z,94.55
2016-09-05T03:18:54.744Z,95.36
2016-09-05T03:19:54.767Z,94.59
2016-09-05T03:20:54.792Z,94.59
2016-09-05T03:21:54.816Z,94.98
2016-09-05T03:22:54.841Z,95.56
2016-09-05T03:23:54.867Z,95.12
2016-09-05T03:24:54.895Z,95.12
2016-09-05T03:25:54.924Z,95.07
2016-09-05T03:26:54.956Z,95.17
2016-09-05T03:27:54.977Z,95.17
2016-09-05T03:28:54.995Z,95.26
2016-09-05T03:29:55.020Z,95.17
2016-09-05T03:30:55.050Z,94.5
2016-09-05T03:31:55.119Z,95.36
2016-09-05T03:32:55.110Z,95.36
2016-09-05T03:33:55.131Z,94.59
2016-09-05T03:34:55.157Z,95.56
2016-09-05T03:35:55.174Z,95.36
2016-09-05T03:36:55.194Z,95.36
2016-09-05T03:37:55.219Z,95.46
2016-09-05T03:38:55.263Z,95.31
2016-09-05T03:39:55.268Z,95.17
2016-09-05T03:40:55.301Z,95.36
2016-09-05T03:42:10.246Z,95.36
2016-09-05T03:42:55.351Z,94.98
2016-09-05T03:43:55.389Z,94.69
2016-09-05T03:44:55.395Z,94.74
2016-09-05T03:45:55.439Z,94.89
2016-09-05T03:46:55.458Z,94.59
2016-09-05T03:47:55.478Z,95.26
2016-09-05T03:48:55.502Z,94.79
2016-09-05T03:49:55.540Z,95.07
2016-09-05T03:50:55.550Z,94.59
2016-09-05T03:51:55.569Z,94.98
2016-09-05T03:52:55.599Z,94.98
2016-09-05T03:53:55.626Z,94.89
2016-09-05T03:54:55.650Z,94.89
2016-09-05T03:55:55.671Z,94.69
2016-09-05T03:56:55.698Z,94.89
2016-09-05T03:58:10.648Z,94.79
2016-09-05T03:58:55.755Z,94.79
2016-09-05T03:59:55.776Z,94.98
2016-09-05T04:00:55.803Z,94.79
2016-09-05T04:01:55.823Z,94.21
2016-09-05T04:02:55.858Z,94.98
2016-09-05T04:03:55.877Z,94.79
2016-09-05T04:04:55.909Z,94.59
2016-09-05T04:05:55.925Z,95.36
2016-09-05T04:06:55.965Z,94.59
2016-09-05T04:07:55.978Z,95.36
2016-09-05T04:08:56.017Z,95.56
2016-09-05T04:09:56.024Z,94.59
2016-09-05T04:10:56.057Z,94.79
2016-09-05T04:11:56.076Z,94.59
2016-09-05T04:12:56.104Z,94.98
2016-09-05T04:14:11.056Z,95.07
2016-09-05T04:15:56.180Z,95.07
2016-09-05T04:16:56.203Z,94.79
2016-09-05T04:17:56.224Z,94.59
2016-09-05T04:18:56.254Z,94.79
2016-09-05T04:19:56.282Z,94.69
2016-09-05T04:20:56.306Z,95.07
2016-09-05T04:21:56.336Z,94.79
2016-09-05T04:22:56.404Z,94.79
2016-09-05T04:23:56.379Z,94.59
2016-09-05T04:24:56.404Z,95.07
2016-09-05T04:26:56.469Z,96.51
2016-09-05T04:27:57.170Z,97.28
2016-09-05T04:28:56.516Z,97.38
2016-09-05T04:30:11.452Z,98.33
2016-09-05T04:30:56.551Z,98.47
2016-09-05T04:31:56.584Z,99.01
2016-09-05T04:32:56.607Z,99.63
2016-09-05T04:33:56.628Z,99.99
2016-09-05T04:34:56.665Z,99.99
2016-09-05T04:35:56.687Z,99.99
2016-09-05T04:36:56.721Z,99.99
2016-09-05T04:37:56.726Z,99.99
2016-09-05T04:38:56.764Z,99.99
2016-09-05T04:39:56.780Z,99.99
2016-09-05T04:40:56.805Z,99.99
2016-09-05T04:41:56.830Z,99.99
2016-09-05T04:42:56.872Z,99.99
2016-09-05T04:43:56.884Z,99.99
2016-09-05T04:45:11.829Z,99.99
2016-09-05T04:46:56.958Z,99.99
2016-09-05T04:47:56.981Z,99.99
2016-09-05T04:48:57.020Z,99.99
2016-09-05T04:49:57.033Z,99.99
2016-09-05T04:50:57.059Z,99.99
2016-09-05T04:51:57.088Z,99.99
2016-09-05T04:52:57.115Z,99.99
2016-09-05T04:53:57.134Z,99.99
2016-09-05T04:54:57.153Z,99.99
2016-09-05T04:55:57.181Z,99.99
2016-09-05T04:56:57.206Z,99.99
2016-09-05T04:57:57.233Z,99.99
2016-09-05T04:58:57.259Z,99.99
2016-09-05T04:59:57.998Z,99.99
2016-09-05T05:00:57.306Z,99.99
2016-09-05T05:01:57.341Z,99.99
2016-09-05T05:02:57.357Z,99.99
2016-09-05T05:03:57.381Z,99.99
2016-09-05T05:04:57.409Z,99.99
2016-09-05T05:05:57.445Z,99.99
2016-09-05T05:06:57.464Z,99.99
2016-09-05T05:07:57.482Z,99.99
2016-09-05T05:08:57.512Z,99.99
2016-09-05T05:09:57.535Z,99.99
2016-09-05T05:10:57.560Z,99.99
2016-09-05T05:11:57.585Z,99.99
2016-09-05T05:12:57.603Z,99.99
2016-09-05T05:13:57.627Z,99.99
2016-09-05T05:15:57.685Z,99.99
2016-09-05T05:17:12.635Z,99.99
2016-09-05T05:17:57.731Z,99.99
2016-09-05T05:18:57.759Z,99.99
2016-09-05T05:19:57.780Z,99.99
2016-09-05T05:20:57.808Z,99.99
2016-09-05T05:21:57.828Z,99.99
2016-09-05T05:22:59.011Z,99.99
2016-09-05T05:23:57.891Z,99.99
2016-09-05T05:24:57.904Z,99.99
2016-09-05T05:25:57.930Z,99.99
2016-09-05T05:26:57.953Z,99.99
2016-09-05T05:27:57.996Z,99.99
2016-09-05T05:28:58.004Z,99.99
2016-09-05T05:29:58.030Z,99.99
2016-09-05T05:30:58.064Z,99.99
2016-09-05T05:33:13.030Z,99.99
2016-09-05T05:33:58.131Z,99.99
2016-09-05T05:34:58.165Z,99.99
2016-09-05T05:35:58.186Z,99.99
2016-09-05T05:36:58.210Z,99.99
2016-09-05T05:37:58.229Z,99.99
2016-09-05T05:38:58.261Z,99.99
2016-09-05T05:39:58.284Z,99.99
2016-09-05T05:40:58.322Z,99.99
2016-09-05T05:41:58.331Z,99.99
2016-09-05T05:42:58.364Z,99.99
2016-09-05T05:43:58.382Z,99.99
2016-09-05T05:45:58.442Z,99.99
2016-09-05T05:46:58.464Z,99.99
2016-09-05T05:47:58.498Z,99.99
2016-09-05T05:49:13.432Z,99.99
2016-09-05T05:49:58.582Z,99.99
2016-09-05T05:50:58.557Z,99.99
2016-09-05T05:51:58.581Z,99.99
2016-09-05T05:52:58.605Z,99.99
2016-09-05T05:53:58.629Z,99.99
2016-09-05T05:54:58.673Z,99.99
2016-09-05T05:55:58.683Z,99.99
2016-09-05T05:56:58.724Z,99.99
2016-09-05T05:57:58.735Z,99.99
2016-09-05T05:58:58.766Z,99.99
2016-09-05T05:59:58.781Z,99.99
2016-09-05T06:00:58.816Z,99.99
2016-09-05T06:01:58.844Z,99.99
2016-09-05T06:02:58.866Z,99.99
2016-09-05T06:03:58.887Z,99.99
2016-09-05T06:05:13.838Z,99.99
2016-09-05T06:05:58.930Z,99.99
2016-09-05T06:06:58.956Z,99.99
2016-09-05T06:07:58.985Z,99.99
2016-09-05T06:08:59.005Z,99.99
2016-09-05T06:09:59.035Z,99.99
2016-09-05T06:10:59.133Z,99.99
2016-09-05T06:11:59.096Z,99.99
2016-09-05T06:12:59.113Z,99.99
2016-09-05T06:13:59.134Z,99.99
2016-09-05T06:14:59.161Z,99.99
2016-09-05T06:15:59.181Z,99.99
2016-09-05T06:16:59.217Z,99.99
2016-09-05T06:17:59.233Z,99.99
2016-09-05T06:18:59.258Z,99.99
2016-09-05T06:20:14.210Z,99.99
2016-09-05T06:20:59.321Z,99.99
2016-09-05T06:21:59.352Z,99.99
2016-09-05T06:23:00.057Z,99.99
2016-09-05T06:23:59.397Z,99.99
2016-09-05T06:24:59.415Z,99.99
2016-09-05T06:25:59.454Z,99.99
2016-09-05T06:26:59.459Z,99.99
2016-09-05T06:27:59.546Z,99.99
2016-09-05T06:28:59.513Z,99.99
2016-09-05T06:29:59.536Z,99.99
2016-09-05T06:30:59.559Z,99.99
2016-09-05T06:31:59.599Z,99.99
2016-09-05T06:32:59.611Z,99.99
2016-09-05T06:33:59.640Z,99.99
2016-09-05T06:34:59.663Z,99.99
2016-09-05T06:36:59.725Z,99.99
2016-09-05T06:37:59.754Z,99.99
2016-09-05T06:38:59.759Z,99.99
2016-09-05T06:39:59.798Z,99.99
2016-09-05T06:40:59.813Z,99.99
2016-09-05T06:41:59.837Z,99.99
2016-09-05T06:42:59.863Z,99.99
2016-09-05T06:43:59.906Z,99.99
2016-09-05T06:44:59.927Z,99.99
2016-09-05T06:45:59.938Z,99.99
2016-09-05T06:46:59.976Z,99.99
2016-09-05T06:47:59.988Z,99.99
2016-09-05T06:49:00.031Z,99.99
2016-09-05T06:50:00.041Z,99.99
2016-09-05T06:51:00.075Z,99.99
2016-09-05T06:52:15.016Z,99.99
2016-09-05T06:54:00.152Z,99.99
2016-09-05T06:55:00.166Z,99.99
2016-09-05T06:56:00.226Z,99.99
2016-09-05T06:57:00.217Z,99.99
2016-09-05T06:58:00.240Z,99.99
2016-09-05T06:59:00.271Z,99.99
2016-09-05T07:00:00.294Z,99.99
2016-09-05T07:01:00.322Z,99.99
2016-09-05T07:02:00.337Z,99.99
2016-09-05T07:03:00.369Z,99.99
2016-09-05T07:04:00.391Z,99.99
2016-09-05T07:05:00.417Z,99.99
2016-09-05T07:06:00.454Z,99.99
2016-09-05T07:07:00.471Z,99.99
2016-09-05T07:08:15.424Z,99.99
2016-09-05T07:09:00.530Z,99.99
2016-09-05T07:10:00.542Z,99.99
2016-09-05T07:11:00.571Z,99.99
2016-09-05T07:12:00.598Z,99.99
2016-09-05T07:14:00.648Z,99.99
2016-09-05T07:15:00.674Z,99.99
2016-09-05T07:16:00.695Z,99.99
2016-09-05T07:17:00.736Z,99.99
2016-09-05T07:18:00.751Z,99.99
2016-09-05T07:19:00.773Z,99.99
2016-09-05T07:20:00.798Z,99.99
2016-09-05T07:22:00.844Z,99.99
2016-09-05T07:23:00.871Z,99.99
2016-09-05T07:24:15.821Z,99.99
2016-09-05T07:25:00.932Z,99.99
2016-09-05T07:26:00.946Z,99.99
2016-09-05T07:27:00.973Z,99.99
2016-09-05T07:28:01.003Z,99.99
2016-09-05T07:29:01.024Z,99.99
2016-09-05T07:30:01.050Z,99.87
2016-09-05T07:31:01.086Z,99.68
2016-09-05T07:32:01.104Z,99.2
2016-09-05T07:33:01.130Z,98.72
2016-09-05T07:34:01.158Z,99.1
2016-09-05T07:35:01.189Z,97.71
2016-09-05T07:36:01.201Z,97.04
2016-09-05T07:37:01.227Z,96.94
2016-09-05T07:38:01.259Z,97.42
2016-09-05T07:39:01.341Z,96.85
2016-09-05T07:40:16.230Z,96.47
2016-09-05T07:41:01.342Z,97.14
2016-09-05T07:42:01.365Z,97.04
2016-09-05T07:43:01.379Z,96.51
2016-09-05T07:44:01.408Z,95.07
2016-09-05T07:45:01.436Z,95.07
2016-09-05T07:46:01.478Z,95.7
2016-09-05T07:47:01.500Z,95.89
2016-09-05T07:48:01.511Z,96.13
2016-09-05T07:49:01.552Z,95.17
2016-09-05T07:50:01.566Z,94.88
2016-09-05T07:51:01.601Z,94.21
2016-09-05T07:52:01.627Z,95.17
2016-09-05T07:53:01.654Z,93.77
2016-09-05T07:54:01.677Z,92.09
2016-09-05T07:55:16.622Z,91.52
2016-09-05T07:56:01.741Z,91.71
2016-09-05T07:58:01.779Z,89.73
2016-09-05T07:59:01.807Z,89.64
2016-09-05T08:00:01.829Z,91.22
2016-09-05T08:01:01.853Z,90.65
2016-09-05T08:02:01.882Z,90.55
2016-09-05T08:03:01.922Z,90.65
2016-09-05T08:04:01.990Z,90.69
2016-09-05T08:05:01.961Z,90.55
2016-09-05T08:06:01.999Z,90.5
2016-09-05T08:07:02.027Z,91.46
2016-09-05T08:08:02.040Z,90.36
2016-09-05T08:09:02.071Z,89.4
2016-09-05T08:11:02.122Z,91.18
2016-09-05T08:12:02.157Z,91.22
2016-09-05T08:13:02.188Z,91.22
2016-09-05T08:14:02.208Z,91.08
2016-09-05T08:15:02.226Z,90.51
2016-09-05T08:16:02.264Z,90.51
2016-09-05T08:17:02.283Z,91.32
2016-09-05T08:18:02.314Z,91.22
2016-09-05T08:19:02.341Z,91.13
2016-09-05T08:20:02.369Z,90.7
2016-09-05T08:21:02.392Z,90.99
2016-09-05T08:22:02.416Z,91.47
2016-09-05T08:23:02.453Z,91.28
2016-09-05T08:24:02.479Z,91.66
2016-09-05T08:25:02.495Z,90.45
2016-09-05T08:26:02.521Z,90.75
2016-09-05T08:27:17.474Z,88.53
2016-09-05T08:29:02.602Z,90.65
2016-09-05T08:30:02.640Z,89.35
2016-09-05T08:31:02.661Z,88.19
2016-09-05T08:32:02.685Z,88.39
2016-09-05T08:33:02.709Z,86.46
2016-09-05T08:34:02.756Z,87.33
2016-09-05T08:35:02.768Z,88.34
2016-09-05T08:36:02.797Z,88.29
2016-09-05T08:37:02.817Z,88.39
2016-09-05T08:38:02.849Z,86.65
2016-09-05T08:39:02.869Z,87.33
2016-09-05T08:40:02.900Z,87.33
2016-09-05T08:41:02.926Z,86.18
2016-09-05T08:43:17.910Z,85.25
2016-09-05T08:44:03.006Z,86.56
2016-09-05T08:45:03.033Z,87.42
2016-09-05T08:46:03.061Z,86.6
2016-09-05T08:47:03.138Z,85.3
2016-09-05T08:48:03.113Z,83.85
2016-09-05T08:49:03.149Z,85.3
2016-09-05T08:50:03.177Z,84.43
2016-09-05T08:51:03.211Z,82.16
2016-09-05T08:52:03.243Z,83.36
2016-09-05T08:53:03.266Z,81.81
2016-09-05T08:54:03.288Z,82.68
2016-09-05T08:55:03.310Z,80.76
2016-09-05T08:56:03.337Z,80.37
2016-09-05T08:57:03.383Z,81.33
2016-09-05T08:58:03.396Z,80.46
2016-09-05T08:59:18.354Z,79.21
2016-09-05T09:00:03.451Z,80.51
2016-09-05T09:02:03.515Z,81.81
2016-09-05T09:03:03.538Z,79.21
2016-09-05T09:04:03.565Z,79.16
2016-09-05T09:05:03.598Z,78.77
2016-09-05T09:06:03.635Z,78.13
2016-09-05T09:07:03.662Z,79.31
2016-09-05T09:08:03.681Z,79.5
2016-09-05T09:09:03.709Z,80.18
2016-09-05T09:10:03.741Z,80.18
2016-09-05T09:11:03.865Z,79.89
2016-09-05T09:12:03.801Z,79.02
2016-09-05T09:13:03.824Z,80.08
2016-09-05T09:14:03.852Z,80.27
2016-09-05T09:15:18.807Z,79.31
2016-09-05T09:17:03.958Z,80.43
2016-09-05T09:18:03.967Z,82.7
2016-09-05T09:19:04.006Z,82.31
2016-09-05T09:20:04.030Z,83.08
2016-09-05T09:21:04.069Z,82.79
2016-09-05T09:22:04.078Z,81.73
2016-09-05T09:23:04.116Z,82.21
2016-09-05T09:24:04.150Z,82.7
2016-09-05T09:25:04.168Z,83.81
2016-09-05T09:26:04.195Z,83.62
2016-09-05T09:27:04.222Z,84.67
2016-09-05T09:28:04.255Z,84.58
2016-09-05T09:29:04.292Z,84.58
2016-09-05T09:30:19.232Z,84.1
2016-09-05T09:31:04.339Z,84.77
2016-09-05T09:33:04.395Z,85.69
2016-09-05T09:34:04.417Z,86.61
2016-09-05T09:35:04.441Z,86.61
2016-09-05T09:36:04.481Z,86.71
2016-09-05T09:37:04.510Z,86.9
2016-09-05T09:38:04.529Z,87.33
2016-09-05T09:39:04.551Z,87.29
2016-09-05T09:40:04.597Z,86.32
2016-09-05T09:41:04.606Z,86.61
2016-09-05T09:42:04.659Z,86.36
2016-09-05T09:43:04.662Z,85.88
2016-09-05T09:44:04.697Z,84.87
2016-09-05T09:46:04.762Z,83.72
2016-09-05T09:48:04.800Z,84.67
2016-09-05T09:49:04.834Z,85.25
2016-09-05T09:50:04.850Z,86.12
2016-09-05T09:51:04.878Z,86.02
2016-09-05T09:52:04.916Z,86.12
2016-09-05T09:53:04.940Z,85.83
2016-09-05T09:54:04.970Z,85.54
2016-09-05T09:55:04.985Z,85.83
2016-09-05T09:56:05.019Z,87.52
2016-09-05T09:57:05.041Z,89.06
2016-09-05T09:58:05.065Z,90.69
2016-09-05T09:59:05.093Z,90.36
2016-09-05T10:00:05.138Z,91.9
2016-09-05T10:01:05.146Z,91.95
2016-09-05T10:02:20.103Z,94.88
2016-09-05T10:03:05.206Z,94.88
2016-09-05T10:04:05.255Z,94.49
2016-09-05T10:05:05.271Z,94.69
2016-09-05T10:06:05.281Z,95.17
2016-09-05T10:07:05.321Z,95.75
2016-09-05T10:08:05.339Z,95.55
2016-09-05T10:09:05.362Z,95.55
2016-09-05T10:10:06.099Z,95.55
2016-09-05T10:11:06.472Z,94.83
2016-09-05T10:12:05.446Z,94.06
2016-09-05T10:13:05.482Z,93.1
2016-09-05T10:14:05.500Z,92.91
2016-09-05T10:15:05.539Z,93.24
2016-09-05T10:17:05.594Z,92.61
2016-09-05T10:18:20.534Z,90.64
2016-09-05T10:19:05.629Z,90.64
2016-09-05T10:21:05.685Z,90.4
2016-09-05T10:22:05.710Z,87.6
2016-09-05T10:23:05.734Z,87.41
2016-09-05T10:24:06.482Z,87.07
2016-09-05T10:25:05.797Z,86.3
2016-09-05T10:26:05.821Z,85.91
2016-09-05T10:27:05.847Z,86.3
2016-09-05T10:28:05.875Z,85.91
2016-09-05T10:29:05.927Z,85.34
2016-09-05T10:30:05.932Z,84.18
2016-09-05T10:31:05.976Z,85.53
2016-09-05T10:32:05.998Z,84.18
2016-09-05T10:33:06.021Z,85.14
2016-09-05T10:34:20.969Z,84.22
2016-09-05T10:35:06.082Z,83.55
2016-09-05T10:36:06.098Z,83.55
2016-09-05T10:37:06.141Z,84.28
2016-09-05T10:38:06.161Z,83.55
2016-09-05T10:39:06.201Z,83.74
2016-09-05T10:40:06.212Z,84.12
2016-09-05T10:41:06.251Z,84.61
2016-09-05T10:42:06.281Z,83.03
2016-09-05T10:43:06.301Z,83.51
2016-09-05T10:44:06.328Z,83.31
2016-09-05T10:45:06.351Z,84.38
2016-09-05T10:46:06.391Z,85.3
2016-09-05T10:47:06.408Z,84.66
2016-09-05T10:49:06.477Z,82.49
2016-09-05T10:50:21.417Z,82.97
2016-09-05T10:51:06.518Z,83.03
2016-09-05T10:52:06.548Z,84.76
2016-09-05T10:53:06.585Z,83.36
2016-09-05T10:54:06.605Z,83.26
2016-09-05T10:55:06.643Z,82.78
2016-09-05T10:56:06.663Z,83.41
2016-09-05T10:57:06.737Z,83.22
2016-09-05T10:58:06.716Z,82.49
2016-09-05T10:59:06.743Z,83.16
2016-09-05T11:00:06.777Z,82.68
2016-09-05T11:01:06.799Z,82.39
2016-09-05T11:02:06.825Z,83.16
2016-09-05T11:03:06.855Z,83.45
2016-09-05T11:04:06.894Z,82.68
2016-09-05T11:05:21.837Z,83.36
2016-09-05T11:06:06.951Z,82.26
2016-09-05T11:07:06.967Z,82.35
2016-09-05T11:08:06.993Z,83.03
2016-09-05T11:09:07.023Z,82.74
2016-09-05T11:11:07.088Z,83.22
2016-09-05T11:12:07.117Z,83.31
2016-09-05T11:13:07.144Z,82.74
2016-09-05T11:14:07.173Z,82.26
2016-09-05T11:15:07.220Z,83.12
2016-09-05T11:16:07.220Z,83.31
2016-09-05T11:17:07.250Z,83.47
2016-09-05T11:19:07.304Z,83.03
2016-09-05T11:20:07.327Z,83.03
2016-09-05T11:21:07.410Z,82.26
2016-09-05T11:23:07.411Z,82.01
2016-09-05T11:24:07.441Z,81.72
2016-09-05T11:25:07.468Z,81.43
2016-09-05T11:28:07.550Z,80.66
2016-09-05T11:29:07.578Z,80.18
2016-09-05T11:30:07.608Z,78.86
2016-09-05T11:31:07.633Z,78.34
2016-09-05T11:32:07.666Z,79.21
2016-09-05T11:33:07.692Z,78.73
2016-09-05T11:35:07.753Z,80.27
2016-09-05T11:36:07.778Z,78.83
2016-09-05T11:37:22.729Z,79.31
2016-09-05T11:38:07.826Z,79.31
2016-09-05T11:39:07.866Z,79.46
2016-09-05T11:40:08.578Z,79.27
2016-09-05T11:41:07.920Z,79.41
2016-09-05T11:42:07.941Z,79.41
2016-09-05T11:43:07.982Z,78.77
2016-09-05T11:44:07.993Z,76.36
2016-09-05T11:45:08.034Z,76.17
2016-09-05T11:46:08.061Z,76.26
2016-09-05T11:47:08.096Z,76.26
2016-09-05T11:49:08.150Z,77.23
2016-09-05T11:52:08.229Z,74.37
2016-09-05T11:53:23.171Z,75.24
2016-09-05T11:54:08.292Z,74.57
2016-09-05T11:55:08.306Z,73.93
2016-09-05T11:56:08.336Z,74.99
2016-09-05T11:57:08.364Z,73.63
2016-09-05T11:58:08.398Z,72.9
2016-09-05T11:59:08.426Z,73.83
2016-09-05T12:01:08.474Z,72.96
2016-09-05T12:02:08.513Z,73.09
2016-09-05T12:03:08.535Z,73.38
2016-09-05T12:04:08.576Z,73.48
2016-09-05T12:05:08.584Z,73
2016-09-05T12:06:08.628Z,73.09
2016-09-05T12:07:08.640Z,73.63
2016-09-05T12:08:08.668Z,73.73
2016-09-05T12:09:23.624Z,74.31
2016-09-05T12:10:08.737Z,74.47
2016-09-05T12:11:08.760Z,75.01
2016-09-05T12:12:08.793Z,75.01
2016-09-05T12:13:08.813Z,75.59
2016-09-05T12:14:08.841Z,75.2
2016-09-05T12:15:08.887Z,75.59
2016-09-05T12:16:08.896Z,75.4
2016-09-05T12:17:08.921Z,75.59
2016-09-05T12:18:08.958Z,75.1
2016-09-05T12:19:08.980Z,75.88
2016-09-05T12:20:09.009Z,75.4
2016-09-05T12:21:09.036Z,75.43
2016-09-05T12:22:09.067Z,75.34
2016-09-05T12:23:09.109Z,74.27
2016-09-05T12:24:09.119Z,73.89
2016-09-05T12:25:24.075Z,74.12
2016-09-05T12:26:09.178Z,73.73
2016-09-05T12:27:09.225Z,72.67
2016-09-05T12:28:09.240Z,73.93
2016-09-05T12:30:09.293Z,72.52
2016-09-05T12:31:09.323Z,72.58
2016-09-05T12:32:09.346Z,73.54
2016-09-05T12:33:09.382Z,72.77
2016-09-05T12:34:09.407Z,73.06
2016-09-05T12:35:09.432Z,73.06
2016-09-05T12:36:09.471Z,72.86
2016-09-05T12:37:09.489Z,72.58
2016-09-05T12:38:09.519Z,72.28
2016-09-05T12:39:09.543Z,72.09
2016-09-05T12:40:24.503Z,73.5
2016-09-05T12:42:09.631Z,72.63
2016-09-05T12:43:09.669Z,73.21
2016-09-05T12:44:09.684Z,72.15
2016-09-05T12:45:09.712Z,72.67
2016-09-05T12:46:09.742Z,72.38
2016-09-05T12:47:09.787Z,71.7
2016-09-05T12:48:09.797Z,71.8
2016-09-05T12:49:09.831Z,71.7
2016-09-05T12:50:09.858Z,71.8
2016-09-05T12:51:09.885Z,71.9
2016-09-05T12:52:09.912Z,73.31
2016-09-05T12:53:09.943Z,73.02
2016-09-05T12:54:09.974Z,73.5
2016-09-05T12:55:10.000Z,73.6
2016-09-05T12:56:10.029Z,74.24
2016-09-05T12:57:10.055Z,73.69
2016-09-05T12:58:10.078Z,73.85
2016-09-05T12:59:10.155Z,73.57
2016-09-05T13:00:10.133Z,74.37
2016-09-05T13:01:10.169Z,73.37
2016-09-05T13:02:10.189Z,72.34
2016-09-05T13:03:10.217Z,72.54
2016-09-05T13:04:10.246Z,73.41
2016-09-05T13:05:10.293Z,73.31
2016-09-05T13:06:10.305Z,73.79
2016-09-05T13:07:10.332Z,73.6
2016-09-05T13:08:10.362Z,72.48
2016-09-05T13:09:10.386Z,71.12
2016-09-05T13:10:10.419Z,70.84
2016-09-05T13:11:10.449Z,70.64
2016-09-05T13:12:25.404Z,71.51
2016-09-05T13:13:10.506Z,71.7
2016-09-05T13:14:10.541Z,72.25
2016-09-05T13:15:10.554Z,72.34
2016-09-05T13:16:10.588Z,71.86
2016-09-05T13:17:10.612Z,71.67
2016-09-05T13:18:10.663Z,70.9
2016-09-05T13:19:10.672Z,71.09
2016-09-05T13:20:10.708Z,70.54
2016-09-05T13:21:10.724Z,71
2016-09-05T13:22:10.753Z,70.94
2016-09-05T13:23:10.784Z,70.64
2016-09-05T13:24:10.829Z,70.36
2016-09-05T13:25:10.839Z,71.42
2016-09-05T13:26:10.866Z,69.97
2016-09-05T13:27:10.897Z,69.58
2016-09-05T13:28:25.848Z,69.78
2016-09-05T13:29:11.252Z,69.68
2016-09-05T13:30:10.988Z,69.39
2016-09-05T13:31:11.019Z,69.68
2016-09-05T13:33:11.062Z,69.04
2016-09-05T13:34:11.109Z,69.87
2016-09-05T13:35:11.122Z,70.61
2016-09-05T13:36:11.153Z,71.03